createdAt,value
2018-04-29T00:00:25.417Z,75.64
2018-04-29T00:01:30.150Z,75.82
2018-04-29T00:02:35.169Z,76.10
2018-04-29T00:03:39.321Z,76.33
2018-04-29T00:04:43.449Z,76.53
2018-04-29T00:05:47.801Z,76.89
2018-04-29T00:06:52.299Z,77.14
2018-04-29T00:07:56.628Z,77.31
2018-04-29T00:09:02.374Z,77.48
2018-04-29T00:10:06.604Z,77.75
2018-04-29T00:11:10.734Z,77.95
2018-04-29T00:12:14.872Z,78.10
2018-04-29T00:13:19.384Z,78.30
2018-04-29T00:14:23.482Z,78.41
2018-04-29T00:15:28.073Z,78.50
2018-04-29T00:16:33.077Z,78.56
2018-04-29T00:17:37.288Z,78.58
2018-04-29T00:18:41.423Z,78.78
2018-04-29T00:19:45.961Z,79.10
2018-04-29T00:20:50.250Z,79.28
2018-04-29T00:21:54.392Z,79.40
2018-04-29T00:22:58.706Z,79.66
2018-04-29T00:24:02.887Z,79.93
2018-04-29T00:25:07.001Z,79.92
2018-04-29T00:26:11.128Z,79.60
2018-04-29T00:27:15.349Z,79.64
2018-04-29T00:28:19.494Z,79.66
2018-04-29T00:29:23.612Z,79.73
2018-04-29T00:30:28.116Z,79.80
2018-04-29T00:31:32.269Z,79.93
2018-04-29T00:32:36.697Z,79.82
2018-04-29T00:33:40.856Z,79.74
2018-04-29T00:34:45.099Z,79.59
2018-04-29T00:35:49.323Z,79.43
2018-04-29T00:36:53.512Z,79.21
2018-04-29T00:37:57.620Z,79.05
2018-04-29T00:39:02.042Z,78.83
2018-04-29T00:40:07.181Z,78.87
2018-04-29T00:41:11.332Z,79.02
2018-04-29T00:42:15.447Z,79.23
2018-04-29T00:43:19.567Z,79.41
2018-04-29T00:44:23.779Z,79.52
2018-04-29T00:45:28.117Z,79.70
2018-04-29T00:46:32.236Z,79.87
2018-04-29T00:47:36.379Z,80.00
2018-04-29T00:48:41.408Z,80.04
2018-04-29T00:49:45.569Z,80.17
2018-04-29T00:50:50.282Z,80.34
2018-04-29T00:52:08.082Z,80.51
2018-04-29T00:53:12.354Z,80.38
2018-04-29T00:54:16.440Z,80.34
2018-04-29T00:55:20.675Z,80.45
2018-04-29T00:56:25.113Z,80.57
2018-04-29T00:57:29.285Z,80.69
2018-04-29T00:58:33.491Z,80.75
2018-04-29T00:59:37.613Z,80.72
2018-04-29T01:00:41.821Z,80.74
2018-04-29T01:01:46.336Z,80.49
2018-04-29T01:02:50.996Z,80.48
2018-04-29T01:03:55.292Z,80.56
2018-04-29T01:04:59.414Z,80.65
2018-04-29T01:06:03.575Z,80.60
2018-04-29T01:07:07.800Z,80.47
2018-04-29T01:08:11.948Z,80.45
2018-04-29T01:09:16.358Z,80.39
2018-04-29T01:10:20.756Z,79.93
2018-04-29T01:11:24.894Z,79.61
2018-04-29T01:12:29.009Z,79.20
2018-04-29T01:13:33.873Z,78.92
2018-04-29T01:14:38.111Z,78.72
2018-04-29T01:15:42.511Z,78.68
2018-04-29T01:16:46.932Z,78.62
2018-04-29T01:17:51.246Z,78.57
2018-04-29T01:18:55.430Z,78.57
2018-04-29T01:19:59.634Z,78.51
2018-04-29T01:21:04.704Z,78.45
2018-04-29T01:22:08.806Z,78.24
2018-04-29T01:23:13.042Z,78.02
2018-04-29T01:24:17.193Z,77.84
2018-04-29T01:25:21.462Z,77.78
2018-04-29T01:26:25.879Z,77.67
2018-04-29T01:27:29.982Z,77.65
2018-04-29T01:28:34.210Z,77.68
2018-04-29T01:29:38.363Z,77.83
2018-04-29T01:30:42.699Z,78.13
2018-04-29T01:31:47.039Z,78.43
2018-04-29T01:32:51.382Z,78.65
2018-04-29T01:33:55.525Z,78.69
2018-04-29T01:35:00.053Z,78.76
2018-04-29T01:36:05.360Z,78.83
2018-04-29T01:37:09.484Z,79.08
2018-04-29T01:38:13.706Z,79.34
2018-04-29T01:39:17.864Z,79.53
2018-04-29T01:40:21.984Z,79.65
2018-04-29T01:41:26.187Z,79.79
2018-04-29T01:42:30.300Z,79.86
2018-04-29T01:43:35.102Z,80.04
2018-04-29T01:44:39.558Z,80.16
2018-04-29T01:45:43.878Z,80.22
2018-04-29T01:46:48.435Z,80.26
2018-04-29T01:47:52.681Z,80.19
2018-04-29T01:48:56.888Z,80.07
2018-04-29T01:50:01.046Z,80.06
2018-04-29T01:51:06.051Z,79.93
2018-04-29T01:52:10.174Z,79.90
2018-04-29T01:53:14.369Z,79.94
2018-04-29T01:54:18.495Z,80.06
2018-04-29T01:55:22.699Z,80.15
2018-04-29T01:56:26.960Z,80.29
2018-04-29T01:57:31.065Z,80.42
2018-04-29T01:58:35.175Z,80.60
2018-04-29T01:59:40.085Z,80.88
2018-04-29T02:00:44.595Z,81.17
2018-04-29T02:01:48.840Z,81.50
2018-04-29T02:02:53.040Z,81.74
2018-04-29T02:03:57.239Z,81.95
2018-04-29T02:05:01.578Z,82.03
2018-04-29T02:06:05.771Z,82.06
2018-04-29T02:07:10.584Z,82.10
2018-04-29T02:08:15.084Z,82.10
2018-04-29T02:09:19.251Z,81.94
2018-04-29T02:10:23.396Z,81.54
2018-04-29T02:11:27.509Z,81.07
2018-04-29T02:12:31.743Z,80.59
2018-04-29T02:13:36.021Z,80.17
2018-04-29T02:14:41.149Z,79.80
2018-04-29T02:15:45.794Z,79.52
2018-04-29T02:16:50.293Z,79.29
2018-04-29T02:17:54.535Z,79.08
2018-04-29T02:18:58.646Z,79.01
2018-04-29T02:20:02.754Z,79.14
2018-04-29T02:21:07.927Z,79.26
2018-04-29T02:22:12.112Z,79.33
2018-04-29T02:23:16.376Z,79.27
2018-04-29T02:24:20.555Z,79.10
2018-04-29T02:25:24.676Z,78.79
2018-04-29T02:26:28.872Z,78.53
2018-04-29T02:27:33.187Z,78.33
2018-04-29T02:28:37.313Z,78.20
2018-04-29T02:29:42.349Z,78.10
2018-04-29T02:30:46.659Z,78.03
2018-04-29T02:31:51.006Z,77.96
2018-04-29T02:32:55.141Z,78.01
2018-04-29T02:33:59.259Z,78.06
2018-04-29T02:35:03.517Z,78.07
2018-04-29T02:36:07.889Z,77.95
2018-04-29T02:37:12.009Z,77.81
2018-04-29T02:38:16.163Z,77.79
2018-04-29T02:39:20.595Z,77.85
2018-04-29T02:40:24.795Z,78.07
2018-04-29T02:41:28.942Z,78.24
2018-04-29T02:42:33.214Z,78.35
2018-04-29T02:43:37.414Z,78.69
2018-04-29T02:44:42.196Z,78.95
2018-04-29T02:45:47.016Z,78.73
2018-04-29T02:46:51.344Z,78.67
2018-04-29T02:47:55.492Z,78.69
2018-04-29T02:48:59.653Z,78.66
2018-04-29T02:50:03.878Z,78.76
2018-04-29T02:51:08.026Z,78.80
2018-04-29T02:52:12.446Z,78.95
2018-04-29T02:53:16.592Z,78.84
2018-04-29T02:54:20.707Z,78.82
2018-04-29T02:55:24.893Z,78.99
2018-04-29T02:56:29.038Z,79.17
2018-04-29T02:57:33.161Z,79.29
2018-04-29T02:58:37.359Z,79.33
2018-04-29T02:59:42.105Z,79.45
2018-04-29T03:00:46.874Z,79.31
2018-04-29T03:01:51.172Z,79.24
2018-04-29T03:02:55.450Z,79.31
2018-04-29T03:03:59.576Z,79.45
2018-04-29T03:05:04.789Z,79.69
2018-04-29T03:06:08.940Z,79.81
2018-04-29T03:07:13.078Z,79.80
2018-04-29T03:08:17.193Z,79.91
2018-04-29T03:09:21.618Z,79.76
2018-04-29T03:10:26.077Z,79.49
2018-04-29T03:11:30.504Z,79.29
2018-04-29T03:12:34.655Z,79.16
2018-04-29T03:13:38.788Z,79.08
2018-04-29T03:14:42.911Z,79.10
2018-04-29T03:15:47.704Z,79.17
2018-04-29T03:16:51.993Z,79.34
2018-04-29T03:17:56.112Z,79.49
2018-04-29T03:19:00.225Z,79.43
2018-04-29T03:20:05.067Z,79.40
2018-04-29T03:21:09.813Z,79.49
2018-04-29T03:22:13.935Z,79.54
2018-04-29T03:23:18.061Z,79.68
2018-04-29T03:24:22.174Z,79.82
2018-04-29T03:25:26.408Z,79.86
2018-04-29T03:26:30.545Z,79.97
2018-04-29T03:27:34.775Z,80.19
2018-04-29T03:28:38.894Z,80.25
2018-04-29T03:29:43.316Z,80.31
2018-04-29T03:30:48.606Z,80.24
2018-04-29T03:31:53.109Z,80.18
2018-04-29T03:32:57.219Z,80.13
2018-04-29T03:34:01.351Z,80.08
2018-04-29T03:35:06.633Z,80.17
2018-04-29T03:36:11.085Z,80.31
2018-04-29T03:37:15.299Z,80.45
2018-04-29T03:38:19.401Z,80.32
2018-04-29T03:39:23.719Z,80.21
2018-04-29T03:40:27.844Z,80.19
2018-04-29T03:41:31.989Z,80.14
2018-04-29T03:42:36.423Z,80.23
2018-04-29T03:43:40.533Z,80.35
2018-04-29T03:44:45.349Z,80.52
2018-04-29T03:45:50.721Z,80.75
2018-04-29T03:46:54.852Z,80.82
2018-04-29T03:47:59.115Z,80.95
2018-04-29T03:49:03.320Z,81.02
2018-04-29T03:50:08.231Z,81.05
2018-04-29T03:51:12.457Z,81.05
2018-04-29T03:52:16.584Z,81.04
2018-04-29T03:53:20.712Z,81.09
2018-04-29T03:54:24.841Z,81.06
2018-04-29T03:55:29.363Z,80.98
2018-04-29T03:56:33.551Z,80.97
2018-04-29T03:57:48.410Z,80.95
2018-04-29T03:59:03.436Z,80.93
2018-04-29T04:00:24.236Z,80.92
2018-04-29T04:03:41.292Z,80.91
2018-04-29T04:04:45.513Z,81.45
2018-04-29T04:05:49.679Z,81.68
2018-04-29T04:06:53.821Z,81.64
2018-04-29T04:07:58.233Z,81.45
2018-04-29T04:09:02.467Z,81.20
2018-04-29T04:10:07.311Z,80.89
2018-04-29T04:11:11.487Z,80.59
2018-04-29T04:12:15.604Z,80.34
2018-04-29T04:13:20.302Z,80.29
2018-04-29T04:14:24.780Z,80.33
2018-04-29T04:15:29.175Z,80.11
2018-04-29T04:16:33.315Z,79.64
2018-04-29T04:17:37.429Z,79.45
2018-04-29T04:18:41.545Z,79.54
2018-04-29T04:19:45.657Z,79.46
2018-04-29T04:20:49.884Z,79.40
2018-04-29T04:21:54.105Z,79.43
2018-04-29T04:22:58.340Z,79.43
2018-04-29T04:24:02.854Z,79.47
2018-04-29T04:25:06.999Z,79.60
2018-04-29T04:26:12.139Z,79.79
2018-04-29T04:27:16.283Z,80.12
2018-04-29T04:28:20.452Z,80.23
2018-04-29T04:29:24.605Z,80.42
2018-04-29T04:30:29.471Z,80.70
2018-04-29T04:31:33.584Z,80.86
2018-04-29T04:32:37.819Z,80.82
2018-04-29T04:33:41.939Z,80.71
2018-04-29T04:34:46.213Z,80.62
2018-04-29T04:35:50.325Z,80.67
2018-04-29T04:36:54.857Z,80.80
2018-04-29T04:37:59.058Z,80.80
2018-04-29T04:39:03.233Z,81.07
2018-04-29T04:40:07.401Z,81.09
2018-04-29T04:41:12.173Z,81.08
2018-04-29T04:42:16.317Z,81.02
2018-04-29T04:43:20.741Z,80.83
2018-04-29T04:44:24.947Z,80.72
2018-04-29T04:45:29.541Z,80.57
2018-04-29T04:46:33.672Z,80.34
2018-04-29T04:47:37.887Z,80.18
2018-04-29T04:48:42.045Z,79.80
2018-04-29T04:49:46.251Z,79.51
2018-04-29T04:50:50.392Z,79.38
2018-04-29T04:51:55.430Z,79.20
2018-04-29T04:52:59.560Z,79.29
2018-04-29T04:54:03.789Z,79.50
2018-04-29T04:55:07.941Z,79.81
2018-04-29T04:56:12.687Z,80.03
2018-04-29T04:57:17.589Z,80.36
2018-04-29T04:58:21.796Z,80.75
2018-04-29T04:59:25.908Z,80.66
2018-04-29T05:00:30.844Z,80.51
2018-04-29T05:01:34.994Z,80.37
2018-04-29T05:02:39.107Z,80.26
2018-04-29T05:03:43.333Z,80.20
2018-04-29T05:04:47.464Z,80.25
2018-04-29T05:05:51.582Z,80.38
2018-04-29T05:06:56.169Z,80.30
2018-04-29T05:08:00.358Z,80.19
2018-04-29T05:09:04.714Z,80.24
2018-04-29T05:10:08.839Z,80.11
2018-04-29T05:11:12.967Z,80.06
2018-04-29T05:12:17.868Z,79.98
2018-04-29T05:13:22.292Z,79.85
2018-04-29T05:14:26.408Z,79.53
2018-04-29T05:15:30.519Z,79.32
2018-04-29T05:16:34.960Z,78.76
2018-04-29T05:17:39.069Z,78.36
2018-04-29T05:18:43.374Z,78.06
2018-04-29T05:19:47.479Z,77.95
2018-04-29T05:20:51.621Z,77.61
2018-04-29T05:21:56.508Z,77.37
2018-04-29T05:23:01.797Z,77.34
2018-04-29T05:24:05.928Z,77.32
2018-04-29T05:25:10.041Z,77.07
2018-04-29T05:26:14.485Z,76.70
2018-04-29T05:27:18.708Z,76.50
2018-04-29T05:28:23.023Z,76.46
2018-04-29T05:29:27.165Z,76.56
2018-04-29T05:30:31.659Z,76.18
2018-04-29T05:31:35.879Z,75.93
2018-04-29T05:32:40.295Z,75.50
2018-04-29T05:33:44.429Z,75.31
2018-04-29T05:34:48.537Z,75.15
2018-04-29T05:35:52.753Z,74.99
2018-04-29T05:36:58.058Z,74.57
2018-04-29T05:38:02.497Z,74.46
2018-04-29T05:39:07.005Z,74.28
2018-04-29T05:40:11.121Z,73.96
2018-04-29T05:41:15.828Z,74.00
2018-04-29T05:42:20.043Z,74.06
2018-04-29T05:43:24.168Z,73.78
2018-04-29T05:44:28.312Z,73.65
2018-04-29T05:45:33.113Z,73.55
2018-04-29T05:46:37.248Z,73.67
2018-04-29T05:47:41.438Z,73.71
2018-04-29T05:48:45.559Z,73.56
2018-04-29T05:49:49.819Z,73.50
2018-04-29T05:50:54.401Z,72.78
2018-04-29T05:51:58.599Z,72.70
2018-04-29T05:53:02.814Z,72.47
2018-04-29T05:54:06.925Z,72.14
2018-04-29T05:55:11.209Z,71.61
2018-04-29T05:56:15.361Z,71.53
2018-04-29T05:57:19.808Z,71.33
2018-04-29T05:58:24.030Z,71.08
2018-04-29T05:59:28.165Z,70.77
2018-04-29T06:00:32.714Z,70.73
2018-04-29T06:01:36.906Z,70.64
2018-04-29T06:02:41.070Z,70.61
2018-04-29T06:03:45.625Z,70.24
2018-04-29T06:04:49.850Z,69.91
2018-04-29T06:05:54.058Z,69.79
2018-04-29T06:06:58.374Z,69.58
2018-04-29T06:08:02.763Z,69.58
2018-04-29T06:09:07.094Z,69.56
2018-04-29T06:10:11.310Z,69.35
2018-04-29T06:11:15.532Z,69.17
2018-04-29T06:12:20.682Z,68.92
2018-04-29T06:13:24.838Z,68.87
2018-04-29T06:14:28.940Z,68.73
2018-04-29T06:15:33.247Z,68.66
2018-04-29T06:16:37.796Z,68.73
2018-04-29T06:17:41.949Z,68.70
2018-04-29T06:18:46.220Z,68.23
2018-04-29T06:19:50.350Z,68.31
2018-04-29T06:20:54.576Z,67.78
2018-04-29T06:21:59.460Z,67.51
2018-04-29T06:23:04.096Z,67.05
2018-04-29T06:24:08.333Z,66.84
2018-04-29T06:25:12.544Z,67.09
2018-04-29T06:26:16.687Z,67.26
2018-04-29T06:27:21.829Z,67.72
2018-04-29T06:28:25.960Z,67.65
2018-04-29T06:29:30.477Z,66.77
2018-04-29T06:30:34.932Z,66.37
2018-04-29T06:31:39.329Z,66.42
2018-04-29T06:32:43.897Z,66.10
2018-04-29T06:33:48.494Z,66.24
2018-04-29T06:34:52.630Z,65.35
2018-04-29T06:35:57.663Z,64.88
2018-04-29T06:37:02.099Z,63.69
2018-04-29T06:38:06.264Z,63.46
2018-04-29T06:39:10.484Z,62.88
2018-04-29T06:40:16.289Z,62.13
2018-04-29T06:41:20.977Z,61.60
2018-04-29T06:42:25.144Z,61.39
2018-04-29T06:43:29.314Z,60.93
2018-04-29T06:44:33.598Z,61.04
2018-04-29T06:45:38.476Z,60.98
2018-04-29T06:46:43.020Z,60.52
2018-04-29T06:47:47.224Z,60.79
2018-04-29T06:48:51.364Z,60.44
2018-04-29T06:49:56.714Z,60.08
2018-04-29T06:51:01.017Z,59.60
2018-04-29T06:52:05.300Z,58.99
2018-04-29T06:53:09.768Z,58.57
2018-04-29T06:54:13.898Z,58.92
2018-04-29T06:55:18.854Z,58.66
2018-04-29T06:56:23.056Z,58.46
2018-04-29T06:57:27.228Z,58.31
2018-04-29T06:58:31.370Z,57.25
2018-04-29T06:59:35.822Z,57.49
2018-04-29T07:00:40.267Z,57.56
2018-04-29T07:01:44.478Z,57.41
2018-04-29T07:02:48.646Z,57.26
2018-04-29T07:03:52.778Z,56.08
2018-04-29T07:04:57.162Z,55.85
2018-04-29T07:06:01.594Z,55.88
2018-04-29T07:07:05.771Z,56.92
2018-04-29T07:08:10.138Z,56.38
2018-04-29T07:09:14.280Z,55.65
2018-04-29T07:10:18.494Z,56.12
2018-04-29T07:11:22.672Z,56.37
2018-04-29T07:12:26.814Z,56.49
2018-04-29T07:13:30.949Z,56.79
2018-04-29T07:14:35.276Z,56.94
2018-04-29T07:15:39.574Z,57.19
2018-04-29T07:16:43.768Z,57.16
2018-04-29T07:17:48.254Z,56.44
2018-04-29T07:18:52.402Z,55.28
2018-04-29T07:19:56.696Z,55.09
2018-04-29T07:21:01.868Z,54.40
2018-04-29T07:22:06.046Z,54.29
2018-04-29T07:23:10.402Z,53.28
2018-04-29T07:24:14.963Z,53.22
2018-04-29T07:25:19.232Z,53.10
2018-04-29T07:26:23.394Z,54.27
2018-04-29T07:27:27.607Z,55.29
2018-04-29T07:28:31.759Z,55.85
2018-04-29T07:29:35.981Z,55.89
2018-04-29T07:30:40.466Z,55.51
2018-04-29T07:31:44.874Z,55.61
2018-04-29T07:32:49.029Z,55.51
2018-04-29T07:33:53.154Z,55.88
2018-04-29T07:34:57.660Z,55.65
2018-04-29T07:36:02.837Z,53.90
2018-04-29T07:37:07.010Z,53.45
2018-04-29T07:38:11.305Z,53.52
2018-04-29T07:39:15.527Z,52.34
2018-04-29T07:40:19.696Z,52.39
2018-04-29T07:41:24.144Z,51.61
2018-04-29T07:42:28.309Z,51.89
2018-04-29T07:43:32.529Z,51.68
2018-04-29T07:44:36.758Z,51.88
2018-04-29T07:45:41.417Z,51.96
2018-04-29T07:46:45.883Z,51.41
2018-04-29T07:47:50.446Z,50.86
2018-04-29T07:48:54.587Z,49.49
2018-04-29T07:49:59.964Z,48.32
2018-04-29T07:51:04.334Z,48.09
2018-04-29T07:52:33.316Z,48.23
2018-04-29T07:53:37.912Z,48.59
2018-04-29T07:54:42.235Z,49.04
2018-04-29T07:55:46.532Z,48.18
2018-04-29T07:56:50.660Z,47.47
2018-04-29T07:57:54.920Z,48.34
2018-04-29T07:58:59.696Z,49.36
2018-04-29T08:00:06.448Z,49.79
2018-04-29T08:01:11.243Z,49.57
2018-04-29T08:02:15.464Z,49.24
2018-04-29T08:03:20.322Z,49.93
2018-04-29T08:04:24.560Z,49.61
2018-04-29T08:05:28.696Z,49.65
2018-04-29T08:06:32.970Z,49.04
2018-04-29T08:07:37.131Z,49.18
2018-04-29T08:08:41.272Z,49.30
2018-04-29T08:09:45.424Z,48.84
2018-04-29T08:10:49.726Z,48.42
2018-04-29T08:11:53.869Z,48.25
2018-04-29T08:12:59.046Z,48.98
2018-04-29T08:14:03.430Z,49.21
2018-04-29T08:15:07.873Z,49.06
2018-04-29T08:16:12.339Z,48.63
2018-04-29T08:17:16.499Z,48.49
2018-04-29T08:18:21.427Z,48.62
2018-04-29T08:19:26.026Z,48.20
2018-04-29T08:20:30.211Z,48.54
2018-04-29T08:21:34.406Z,48.67
2018-04-29T08:22:38.660Z,48.03
2018-04-29T08:23:42.751Z,48.60
2018-04-29T08:24:47.008Z,48.82
2018-04-29T08:25:51.448Z,48.70
2018-04-29T08:26:55.568Z,48.85
2018-04-29T08:28:00.808Z,48.90
2018-04-29T08:29:05.056Z,48.17
2018-04-29T08:30:09.516Z,48.36
2018-04-29T08:31:13.661Z,47.91
2018-04-29T08:32:18.164Z,47.13
2018-04-29T08:33:22.306Z,46.56
2018-04-29T08:34:26.458Z,46.70
2018-04-29T08:35:30.714Z,46.38
2018-04-29T08:36:34.934Z,45.17
2018-04-29T08:37:39.414Z,45.38
2018-04-29T08:38:43.626Z,44.97
2018-04-29T08:39:47.778Z,45.35
2018-04-29T08:40:52.099Z,45.70
2018-04-29T08:41:56.317Z,45.84
2018-04-29T08:43:01.863Z,46.53
2018-04-29T08:44:06.198Z,47.19
2018-04-29T08:45:11.907Z,47.32
2018-04-29T08:46:16.239Z,47.45
2018-04-29T08:47:20.412Z,47.69
2018-04-29T08:48:24.747Z,47.77
2018-04-29T08:49:29.434Z,47.78
2018-04-29T08:50:33.675Z,48.25
2018-04-29T08:51:37.842Z,48.19
2018-04-29T08:52:42.031Z,47.98
2018-04-29T08:53:46.385Z,48.00
2018-04-29T08:54:50.583Z,47.64
2018-04-29T08:55:55.156Z,47.51
2018-04-29T08:56:59.399Z,46.21
2018-04-29T08:58:03.915Z,45.99
2018-04-29T08:59:08.122Z,46.92
2018-04-29T09:00:14.429Z,46.27
2018-04-29T09:01:18.623Z,46.04
2018-04-29T09:02:22.803Z,45.69
2018-04-29T09:03:27.081Z,46.24
2018-04-29T09:04:31.276Z,46.57
2018-04-29T09:05:35.505Z,46.86
2018-04-29T09:06:39.641Z,46.37
2018-04-29T09:07:43.798Z,46.03
2018-04-29T09:08:48.033Z,46.46
2018-04-29T09:09:52.289Z,45.92
2018-04-29T09:10:56.426Z,46.03
2018-04-29T09:12:00.668Z,46.36
2018-04-29T09:13:05.004Z,46.53
2018-04-29T09:14:09.457Z,46.78
2018-04-29T09:15:15.865Z,47.25
2018-04-29T09:16:20.022Z,47.05
2018-04-29T09:17:24.270Z,46.90
2018-04-29T09:18:28.428Z,45.88
2018-04-29T09:19:32.589Z,45.19
2018-04-29T09:20:37.028Z,43.88
2018-04-29T09:21:41.191Z,43.72
2018-04-29T09:22:45.435Z,43.96
2018-04-29T09:23:49.595Z,44.29
2018-04-29T09:24:53.839Z,44.76
2018-04-29T09:25:57.980Z,44.25
2018-04-29T09:27:02.862Z,43.60
2018-04-29T09:28:07.005Z,44.78
2018-04-29T09:29:11.239Z,44.45
2018-04-29T09:30:16.425Z,45.03
2018-04-29T09:31:21.539Z,45.24
2018-04-29T09:32:26.100Z,44.80
2018-04-29T09:33:30.273Z,45.47
2018-04-29T09:34:34.503Z,46.04
2018-04-29T09:36:40.697Z,47.19
2018-04-29T09:37:45.217Z,47.92
2018-04-29T09:38:49.639Z,48.13
2018-04-29T09:39:53.764Z,47.95
2018-04-29T09:40:57.967Z,48.02
2018-04-29T09:42:02.387Z,47.25
2018-04-29T09:43:06.655Z,47.29
2018-04-29T09:44:10.895Z,47.85
2018-04-29T09:45:17.342Z,47.60
2018-04-29T09:46:22.382Z,47.10
2018-04-29T09:47:26.579Z,46.58
2018-04-29T09:48:30.757Z,46.62
2018-04-29T09:49:35.092Z,46.11
2018-04-29T09:50:39.250Z,46.58
2018-04-29T09:51:43.775Z,46.46
2018-04-29T09:52:48.051Z,47.19
2018-04-29T09:53:52.197Z,48.06
2018-04-29T09:54:56.527Z,48.67
2018-04-29T09:56:00.757Z,49.08
2018-04-29T09:57:05.275Z,49.16
2018-04-29T09:58:09.530Z,49.28
2018-04-29T09:59:13.776Z,49.34
2018-04-29T10:00:22.126Z,49.92
2018-04-29T10:01:26.497Z,50.23
2018-04-29T10:02:32.047Z,50.18
2018-04-29T10:03:36.854Z,50.31
2018-04-29T10:04:41.068Z,50.98
2018-04-29T10:05:45.794Z,51.48
2018-04-29T10:06:50.374Z,51.73
2018-04-29T10:07:54.609Z,51.59
2018-04-29T10:08:58.762Z,51.89
2018-04-29T10:10:03.544Z,52.40
2018-04-29T10:11:07.816Z,53.00
2018-04-29T10:12:12.076Z,53.62
2018-04-29T10:13:16.295Z,54.09
2018-04-29T10:14:20.990Z,54.08
2018-04-29T10:15:25.476Z,53.91
2018-04-29T10:16:29.634Z,54.15
2018-04-29T10:17:33.892Z,54.25
2018-04-29T10:18:38.039Z,54.66
2018-04-29T10:19:42.222Z,54.42
2018-04-29T10:20:46.376Z,54.96
2018-04-29T10:21:50.634Z,55.11
2018-04-29T10:22:55.064Z,55.52
2018-04-29T10:23:59.214Z,55.53
2018-04-29T10:25:03.380Z,55.48
2018-04-29T10:26:08.305Z,55.31
2018-04-29T10:27:12.516Z,55.76
2018-04-29T10:28:16.912Z,55.75
2018-04-29T10:29:21.612Z,55.86
2018-04-29T10:30:26.098Z,56.19
2018-04-29T10:31:31.136Z,56.58
2018-04-29T10:32:35.346Z,56.98
2018-04-29T10:33:39.587Z,56.97
2018-04-29T10:34:43.710Z,57.28
2018-04-29T10:35:48.464Z,57.36
2018-04-29T10:36:52.604Z,57.10
2018-04-29T10:37:56.750Z,56.64
2018-04-29T10:39:00.905Z,56.48
2018-04-29T10:40:05.136Z,55.99
2018-04-29T10:41:09.685Z,56.08
2018-04-29T10:42:13.847Z,55.96
2018-04-29T10:43:18.055Z,55.63
2018-04-29T10:44:22.325Z,55.50
2018-04-29T10:45:26.632Z,55.41
2018-04-29T10:46:31.742Z,55.70
2018-04-29T10:47:36.464Z,55.54
2018-04-29T10:48:40.627Z,55.86
2018-04-29T10:49:44.844Z,55.72
2018-04-29T10:50:49.002Z,54.94
2018-04-29T10:51:53.264Z,55.36
2018-04-29T10:52:57.542Z,55.65
2018-04-29T10:54:02.316Z,55.43
2018-04-29T10:55:06.720Z,55.64
2018-04-29T10:56:11.083Z,55.50
2018-04-29T10:57:15.250Z,56.03
2018-04-29T10:58:19.581Z,56.24
2018-04-29T10:59:23.918Z,56.08
2018-04-29T11:00:28.770Z,55.89
2018-04-29T11:01:32.946Z,56.52
2018-04-29T11:02:37.334Z,58.09
2018-04-29T11:03:41.515Z,59.84
2018-04-29T11:04:45.728Z,59.06
2018-04-29T11:05:49.888Z,58.24
2018-04-29T11:06:54.054Z,56.83
2018-04-29T11:07:58.316Z,57.19
2018-04-29T11:09:02.542Z,58.04
2018-04-29T11:10:06.871Z,57.72
2018-04-29T11:12:18.176Z,57.98
2018-04-29T11:13:22.677Z,58.10
2018-04-29T11:14:27.001Z,58.33
2018-04-29T11:15:31.474Z,59.55
2018-04-29T11:16:35.621Z,58.70
2018-04-29T11:17:39.861Z,59.92
2018-04-29T11:18:44.501Z,60.22
2018-04-29T11:19:48.639Z,58.63
2018-04-29T11:20:52.924Z,58.30
2018-04-29T11:21:57.079Z,58.24
2018-04-29T11:23:01.346Z,58.63
2018-04-29T11:24:05.562Z,58.52
2018-04-29T11:25:10.631Z,58.60
2018-04-29T11:26:14.900Z,58.75
2018-04-29T11:27:19.054Z,58.60
2018-04-29T11:28:24.362Z,59.30
2018-04-29T11:29:28.634Z,60.27
2018-04-29T11:30:33.146Z,59.38
2018-04-29T11:31:37.401Z,59.67
2018-04-29T11:32:41.611Z,60.01
2018-04-29T11:33:45.858Z,59.45
2018-04-29T11:34:50.124Z,59.53
2018-04-29T11:35:54.324Z,59.22
2018-04-29T11:36:58.798Z,60.51
2018-04-29T11:38:03.003Z,60.32
2018-04-29T11:39:07.307Z,62.22
2018-04-29T11:40:11.598Z,61.55
2018-04-29T11:41:15.750Z,61.56
2018-04-29T11:42:19.944Z,61.22
2018-04-29T11:43:24.694Z,60.66
2018-04-29T11:44:28.938Z,60.74
2018-04-29T11:45:33.340Z,59.97
2018-04-29T11:46:37.770Z,60.20
2018-04-29T11:47:41.956Z,60.04
2018-04-29T11:48:46.140Z,60.17
2018-04-29T11:49:50.630Z,59.98
2018-04-29T11:50:54.798Z,59.99
2018-04-29T11:51:59.223Z,59.91
2018-04-29T11:53:03.504Z,59.00
2018-04-29T11:54:07.988Z,59.12
2018-04-29T11:55:12.223Z,59.07
2018-04-29T11:56:16.987Z,59.18
2018-04-29T11:57:21.162Z,59.45
2018-04-29T11:58:25.339Z,60.03
2018-04-29T11:59:30.296Z,60.15
2018-04-29T12:00:35.009Z,60.31
2018-04-29T12:01:39.916Z,60.07
2018-04-29T12:02:44.214Z,60.29
2018-04-29T12:03:48.414Z,60.50
2018-04-29T12:04:52.614Z,60.20
2018-04-29T12:05:56.819Z,60.26
2018-04-29T12:07:00.956Z,60.09
2018-04-29T12:08:05.240Z,60.10
2018-04-29T12:09:09.416Z,60.04
2018-04-29T12:10:13.632Z,59.91
2018-04-29T12:11:18.110Z,59.64
2018-04-29T12:12:22.382Z,59.18
2018-04-29T12:13:26.976Z,59.42
2018-04-29T12:14:31.184Z,59.15
2018-04-29T12:15:35.344Z,59.06
2018-04-29T12:16:39.562Z,58.67
2018-04-29T12:17:43.850Z,58.80
2018-04-29T12:18:48.155Z,58.86
2018-04-29T12:19:52.620Z,60.31
2018-04-29T12:20:56.800Z,60.56
2018-04-29T12:22:00.957Z,60.16
2018-04-29T12:23:05.159Z,58.99
2018-04-29T12:24:09.398Z,57.86
2018-04-29T12:25:13.712Z,58.25
2018-04-29T12:26:18.419Z,58.02
2018-04-29T12:27:22.706Z,58.13
2018-04-29T12:28:27.287Z,57.90
2018-04-29T12:29:31.466Z,57.99
2018-04-29T12:30:36.218Z,58.30
2018-04-29T12:31:40.425Z,58.44
2018-04-29T12:32:44.587Z,58.39
2018-04-29T12:33:48.905Z,58.22
2018-04-29T12:34:53.130Z,58.36
2018-04-29T12:35:57.325Z,58.37
2018-04-29T12:37:01.480Z,58.15
2018-04-29T12:38:05.979Z,58.34
2018-04-29T12:39:10.203Z,58.67
2018-04-29T12:40:14.526Z,59.26
2018-04-29T12:41:18.841Z,59.50
2018-04-29T12:42:23.217Z,59.74
2018-04-29T12:43:27.381Z,59.89
2018-04-29T12:44:33.350Z,59.76
2018-04-29T12:45:38.778Z,60.07
2018-04-29T12:46:43.338Z,59.77
2018-04-29T12:47:47.912Z,59.21
2018-04-29T12:48:52.049Z,59.20
2018-04-29T12:49:56.329Z,59.45
2018-04-29T12:51:00.898Z,59.21
2018-04-29T12:52:05.058Z,57.84
2018-04-29T12:53:09.332Z,56.70
2018-04-29T12:54:13.540Z,55.06
2018-04-29T12:55:17.889Z,54.49
2018-04-29T12:56:22.501Z,54.24
2018-04-29T12:57:26.683Z,54.00
2018-04-29T12:58:31.628Z,53.13
2018-04-29T12:59:35.820Z,52.42
2018-04-29T13:00:40.175Z,53.20
2018-04-29T13:01:44.446Z,53.24
2018-04-29T13:02:49.116Z,53.52
2018-04-29T13:03:53.403Z,53.81
2018-04-29T13:04:57.564Z,53.57
2018-04-29T13:06:01.714Z,53.62
2018-04-29T13:07:05.956Z,53.89
2018-04-29T13:08:10.220Z,53.39
2018-04-29T13:09:14.689Z,53.74
2018-04-29T13:10:18.971Z,54.39
2018-04-29T13:11:23.500Z,55.38
2018-04-29T13:12:27.758Z,55.83
2018-04-29T13:13:32.400Z,55.46
2018-04-29T13:14:36.677Z,55.69
2018-04-29T13:15:41.586Z,54.88
2018-04-29T13:16:45.769Z,54.87
2018-04-29T13:17:50.080Z,55.13
2018-04-29T13:18:54.233Z,54.92
2018-04-29T13:19:58.363Z,54.65
2018-04-29T13:21:02.533Z,55.14
2018-04-29T13:22:07.116Z,54.83
2018-04-29T13:23:11.351Z,54.50
2018-04-29T13:24:15.519Z,54.09
2018-04-29T13:25:20.170Z,53.32
2018-04-29T13:26:24.464Z,53.21
2018-04-29T13:27:28.617Z,53.16
2018-04-29T13:28:33.426Z,52.89
2018-04-29T13:29:38.683Z,51.27
2018-04-29T13:30:43.025Z,49.17
2018-04-29T13:31:47.171Z,47.63
2018-04-29T13:32:51.445Z,47.63
2018-04-29T13:33:55.895Z,47.32
2018-04-29T13:35:00.042Z,48.37
2018-04-29T13:36:04.286Z,49.20
2018-04-29T13:37:08.457Z,49.51
2018-04-29T13:38:12.701Z,50.24
2018-04-29T13:39:16.925Z,50.34
2018-04-29T13:40:21.806Z,49.79
2018-04-29T13:41:26.040Z,49.91
2018-04-29T13:42:30.219Z,50.75
2018-04-29T13:43:34.491Z,51.25
2018-04-29T13:44:38.627Z,52.04
2018-04-29T13:45:43.657Z,52.88
2018-04-29T13:46:48.203Z,53.26
2018-04-29T13:47:52.380Z,52.23
2018-04-29T13:48:56.609Z,51.08
2018-04-29T13:50:00.861Z,50.65
2018-04-29T13:51:05.147Z,50.13
2018-04-29T13:52:09.291Z,49.44
2018-04-29T13:53:13.668Z,48.18
2018-04-29T13:54:17.990Z,47.52